Aérodrome :
LOGIN :

S'inscrire | Disclaimer

   EN    FR    IT 

 










Légende :    VFR   VFR Marginal   IFR   IFR Intensif   IFR Très Intensif
Visi : 
Plafond : 
>= 8 km
>= 3000ft
5 à 8 km
1000 à 3000 ft
1500m à 5 km
500 à 1000 ft
800 à 1500m
200 à 500 ft
< 800m
< 200 ft
Symboles :   Orages  Brouillard  Fortes neiges  Fortes précipitations  Vent > 20 kt
SIGMETs :   Divers  Orages  Givrage  Turbulence  Onde Orograph.  Cendres Volcan.






- Altitude de l'aérodrome : 650 ft
- Code IATA : ZJI


LSZL - Locarno

DERNIER METAR :
  • 221820Z AUTO 00000KT 9999NDV FEW080 16/16 Q1023 RMK

METARs EXPIRÉS :
  • 221750Z AUTO 00000KT 9999NDV FEW076 16/16 Q1023 RMK
  • 221720Z AUTO 00000KT 9999NDV NCD 16/16 Q1023 RMK
  • 221650Z AUTO 00000KT 9999NDV NCD 17/17 Q1023 RMK
  • 221620Z AUTO 00000KT 9999NDV FEW091 17/17 Q1022 RMK
  • 221550Z AUTO 22002KT 9999NDV FEW094 18/17 Q1022 RMK

TAF TAF LSZL
Valide du 22 à 18h jusqu'au 23 à 03h UTC


221725Z 2218/2303 VRB03KT 9999 FEW090
PROB30 2220/2303 3000 BR BKN008



MET'MAP, la Météo Aéronautique d'un coup d'oeil ! - Copyright ORBIFLY Décembre 2007 - Disclaimer

ORBIFLY MET'MAP TEAM :

Programmation & Développement : Alexandra Zaïnal
Conception & Développement : Baudouin d'Aumeries
Co-Programmation & Développement : Marc-Olivier Méhu
Soutien technique & logistique : Manuel Goepfert

Contact : metmap@orbifly.com




SOURCES & CREDITS :

   NOAA